sensor_id;sensor_type;location;lat;lon;timestamp;temperature;humidity
12870;DHT22;6503;48.572;13.460;2023-01-24T00:00:36;2.00;99.90
12870;DHT22;6503;48.572;13.460;2023-01-24T00:03:03;2.00;99.90
12870;DHT22;6503;48.572;13.460;2023-01-24T00:05:33;2.10;99.90
12870;DHT22;6503;48.572;13.460;2023-01-24T00:08:00;2.10;99.90
12870;DHT22;6503;48.572;13.460;2023-01-24T00:10:29;2.10;99.90
12870;DHT22;6503;48.572;13.460;2023-01-24T00:12:57;2.10;99.90
12870;DHT22;6503;48.572;13.460;2023-01-24T00:15:24;2.10;99.90
12870;DHT22;6503;48.572;13.460;2023-01-24T00:17:52;2.10;99.90
12870;DHT22;6503;48.572;13.460;2023-01-24T00:20:19;2.10;99.90
12870;DHT22;6503;48.572;13.460;2023-01-24T00:22:46;2.10;99.90
12870;DHT22;6503;48.572;13.460;2023-01-24T00:25:13;2.20;99.90
12870;DHT22;6503;48.572;13.460;2023-01-24T00:27:42;2.20;99.90
12870;DHT22;6503;48.572;13.460;2023-01-24T00:30:10;2.20;99.90
12870;DHT22;6503;48.572;13.460;2023-01-24T00:32:37;2.20;99.90
12870;DHT22;6503;48.572;13.460;2023-01-24T00:35:05;2.10;99.90
12870;DHT22;6503;48.572;13.460;2023-01-24T00:37:33;2.10;99.90
12870;DHT22;6503;48.572;13.460;2023-01-24T00:40:00;2.10;99.90
12870;DHT22;6503;48.572;13.460;2023-01-24T00:42:27;2.20;99.90
12870;DHT22;6503;48.572;13.460;2023-01-24T00:44:55;2.20;99.90
12870;DHT22;6503;48.572;13.460;2023-01-24T00:47:24;2.10;99.90
12870;DHT22;6503;48.572;13.460;2023-01-24T00:49:51;2.10;99.90
12870;DHT22;6503;48.572;13.460;2023-01-24T00:52:18;2.10;99.90
12870;DHT22;6503;48.572;13.460;2023-01-24T00:54:45;2.10;99.90
12870;DHT22;6503;48.572;13.460;2023-01-24T00:57:13;2.10;99.90
12870;DHT22;6503;48.572;13.460;2023-01-24T00:59:40;2.00;99.90
12870;DHT22;6503;48.572;13.460;2023-01-24T01:02:09;2.10;99.90
12870;DHT22;6503;48.572;13.460;2023-01-24T01:04:36;2.00;99.90
12870;DHT22;6503;48.572;13.460;2023-01-24T01:07:04;1.90;99.90
12870;DHT22;6503;48.572;13.460;2023-01-24T01:09:31;1.90;99.90
12870;DHT22;6503;48.572;13.460;2023-01-24T01:11:58;1.80;99.90
12870;DHT22;6503;48.572;13.460;2023-01-24T01:14:26;1.90;99.90
12870;DHT22;6503;48.572;13.460;2023-01-24T01:16:53;1.90;99.90
12870;DHT22;6503;48.572;13.460;2023-01-24T01:19:21;2.00;99.90
12870;DHT22;6503;48.572;13.460;2023-01-24T01:21:48;2.00;99.90
12870;DHT22;6503;48.572;13.460;2023-01-24T01:24:15;1.90;99.90
12870;DHT22;6503;48.572;13.460;2023-01-24T01:26:42;1.90;99.90
12870;DHT22;6503;48.572;13.460;2023-01-24T01:29:09;1.90;99.90
12870;DHT22;6503;48.572;13.460;2023-01-24T01:31:37;1.90;99.90
12870;DHT22;6503;48.572;13.460;2023-01-24T01:34:04;1.90;99.90
12870;DHT22;6503;48.572;13.460;2023-01-24T01:36:32;1.80;99.90
12870;DHT22;6503;48.572;13.460;2023-01-24T01:38:59;1.80;99.90
12870;DHT22;6503;48.572;13.460;2023-01-24T01:41:26;1.80;99.90
12870;DHT22;6503;48.572;13.460;2023-01-24T01:43:53;1.90;99.90
12870;DHT22;6503;48.572;13.460;2023-01-24T01:46:42;1.90;99.90
12870;DHT22;6503;48.572;13.460;2023-01-24T01:49:16;1.90;99.90
12870;DHT22;6503;48.572;13.460;2023-01-24T01:51:48;1.90;99.90
12870;DHT22;6503;48.572;13.460;2023-01-24T01:54:19;1.90;99.90
12870;DHT22;6503;48.572;13.460;2023-01-24T01:56:50;1.90;99.90
12870;DHT22;6503;48.572;13.460;2023-01-24T01:59:19;1.90;99.90
12870;DHT22;6503;48.572;13.460;2023-01-24T02:01:49;1.80;99.90
12870;DHT22;6503;48.572;13.460;2023-01-24T02:04:21;1.80;99.90
12870;DHT22;6503;48.572;13.460;2023-01-24T02:06:56;1.80;99.90
12870;DHT22;6503;48.572;13.460;2023-01-24T02:09:29;1.80;99.90
12870;DHT22;6503;48.572;13.460;2023-01-24T02:12:01;1.80;99.90
12870;DHT22;6503;48.572;13.460;2023-01-24T02:14:30;1.80;99.90
12870;DHT22;6503;48.572;13.460;2023-01-24T02:17:16;1.90;99.90
12870;DHT22;6503;48.572;13.460;2023-01-24T02:22:45;1.90;99.90
12870;DHT22;6503;48.572;13.460;2023-01-24T02:25:21;1.90;99.90
12870;DHT22;6503;48.572;13.460;2023-01-24T02:27:51;2.00;99.90
12870;DHT22;6503;48.572;13.460;2023-01-24T02:30:18;2.00;99.90
12870;DHT22;6503;48.572;13.460;2023-01-24T02:32:45;1.90;99.90
12870;DHT22;6503;48.572;13.460;2023-01-24T02:35:23;2.00;99.90
12870;DHT22;6503;48.572;13.460;2023-01-24T02:37:51;1.90;99.90
12870;DHT22;6503;48.572;13.460;2023-01-24T02:40:18;2.00;99.90
12870;DHT22;6503;48.572;13.460;2023-01-24T02:42:46;2.00;99.90
12870;DHT22;6503;48.572;13.460;2023-01-24T02:45:19;2.00;99.90
12870;DHT22;6503;48.572;13.460;2023-01-24T02:47:49;2.00;99.90
12870;DHT22;6503;48.572;13.460;2023-01-24T02:50:17;2.00;99.90
12870;DHT22;6503;48.572;13.460;2023-01-24T02:52:44;2.00;99.90
12870;DHT22;6503;48.572;13.460;2023-01-24T02:55:29;2.00;99.90
12870;DHT22;6503;48.572;13.460;2023-01-24T02:57:56;2.00;99.90
12870;DHT22;6503;48.572;13.460;2023-01-24T03:00:33;2.00;99.90
12870;DHT22;6503;48.572;13.460;2023-01-24T03:03:00;2.00;99.90
12870;DHT22;6503;48.572;13.460;2023-01-24T03:05:29;1.90;99.90
12870;DHT22;6503;48.572;13.460;2023-01-24T03:08:06;1.90;99.90
12870;DHT22;6503;48.572;13.460;2023-01-24T03:10:34;1.90;99.90
12870;DHT22;6503;48.572;13.460;2023-01-24T03:13:01;1.80;99.90
12870;DHT22;6503;48.572;13.460;2023-01-24T03:15:47;1.90;99.90
12870;DHT22;6503;48.572;13.460;2023-01-24T03:18:31;1.90;99.90
12870;DHT22;6503;48.572;13.460;2023-01-24T03:21:16;1.90;99.90
12870;DHT22;6503;48.572;13.460;2023-01-24T03:24:00;2.00;99.90
12870;DHT22;6503;48.572;13.460;2023-01-24T03:26:45;2.00;99.90
12870;DHT22;6503;48.572;13.460;2023-01-24T03:29:29;2.00;99.90
12870;DHT22;6503;48.572;13.460;2023-01-24T03:32:14;2.00;99.90
12870;DHT22;6503;48.572;13.460;2023-01-24T03:34:59;2.00;99.90
12870;DHT22;6503;48.572;13.460;2023-01-24T03:37:26;2.00;99.90
12870;DHT22;6503;48.572;13.460;2023-01-24T03:40:12;2.00;99.90
12870;DHT22;6503;48.572;13.460;2023-01-24T03:42:40;1.90;99.90
12870;DHT22;6503;48.572;13.460;2023-01-24T03:45:15;1.90;99.90
12870;DHT22;6503;48.572;13.460;2023-01-24T03:47:46;1.90;99.90
12870;DHT22;6503;48.572;13.460;2023-01-24T03:50:20;1.90;99.90
12870;DHT22;6503;48.572;13.460;2023-01-24T03:53:06;1.90;99.90
12870;DHT22;6503;48.572;13.460;2023-01-24T03:55:33;2.00;99.90
12870;DHT22;6503;48.572;13.460;2023-01-24T03:58:00;2.00;99.90
12870;DHT22;6503;48.572;13.460;2023-01-24T04:00:46;2.00;99.90
12870;DHT22;6503;48.572;13.460;2023-01-24T04:03:15;2.00;99.90
12870;DHT22;6503;48.572;13.460;2023-01-24T04:05:42;2.00;99.90
12870;DHT22;6503;48.572;13.460;2023-01-24T04:08:09;2.00;99.90
12870;DHT22;6503;48.572;13.460;2023-01-24T04:10:37;2.10;99.90
12870;DHT22;6503;48.572;13.460;2023-01-24T04:13:04;2.10;99.90
12870;DHT22;6503;48.572;13.460;2023-01-24T04:15:32;2.10;99.90
12870;DHT22;6503;48.572;13.460;2023-01-24T04:18:01;2.10;99.90
12870;DHT22;6503;48.572;13.460;2023-01-24T04:20:31;2.10;99.90
12870;DHT22;6503;48.572;13.460;2023-01-24T04:23:00;2.10;99.90
12870;DHT22;6503;48.572;13.460;2023-01-24T04:25:28;2.10;99.90
12870;DHT22;6503;48.572;13.460;2023-01-24T04:27:55;2.10;99.90
12870;DHT22;6503;48.572;13.460;2023-01-24T04:30:23;2.10;99.90
12870;DHT22;6503;48.572;13.460;2023-01-24T04:32:51;2.10;99.90
12870;DHT22;6503;48.572;13.460;2023-01-24T04:35:19;2.10;99.90
12870;DHT22;6503;48.572;13.460;2023-01-24T04:37:49;2.10;99.90
12870;DHT22;6503;48.572;13.460;2023-01-24T04:40:16;2.10;99.90
12870;DHT22;6503;48.572;13.460;2023-01-24T04:42:43;2.10;99.90
12870;DHT22;6503;48.572;13.460;2023-01-24T04:45:12;2.10;99.90
12870;DHT22;6503;48.572;13.460;2023-01-24T04:47:39;2.10;99.90
12870;DHT22;6503;48.572;13.460;2023-01-24T04:50:10;2.10;99.90
12870;DHT22;6503;48.572;13.460;2023-01-24T04:52:38;2.10;99.90
12870;DHT22;6503;48.572;13.460;2023-01-24T04:55:07;2.10;99.90
12870;DHT22;6503;48.572;13.460;2023-01-24T04:57:35;2.20;99.90
12870;DHT22;6503;48.572;13.460;2023-01-24T05:00:03;2.10;99.90
12870;DHT22;6503;48.572;13.460;2023-01-24T05:02:33;2.10;99.90
12870;DHT22;6503;48.572;13.460;2023-01-24T05:05:00;2.10;99.90
12870;DHT22;6503;48.572;13.460;2023-01-24T05:07:28;2.10;99.90
12870;DHT22;6503;48.572;13.460;2023-01-24T05:09:57;2.10;99.90
12870;DHT22;6503;48.572;13.460;2023-01-24T05:12:26;2.10;99.90
12870;DHT22;6503;48.572;13.460;2023-01-24T05:14:55;2.10;99.90
12870;DHT22;6503;48.572;13.460;2023-01-24T05:17:22;2.10;99.90
12870;DHT22;6503;48.572;13.460;2023-01-24T05:19:49;2.10;99.90
12870;DHT22;6503;48.572;13.460;2023-01-24T05:22:19;2.10;99.90
12870;DHT22;6503;48.572;13.460;2023-01-24T05:24:46;2.10;99.90
12870;DHT22;6503;48.572;13.460;2023-01-24T05:27:14;2.10;99.90
12870;DHT22;6503;48.572;13.460;2023-01-24T05:29:43;2.10;99.90
12870;DHT22;6503;48.572;13.460;2023-01-24T05:32:10;2.20;99.90
12870;DHT22;6503;48.572;13.460;2023-01-24T05:34:38;2.20;99.90
12870;DHT22;6503;48.572;13.460;2023-01-24T05:37:05;2.20;99.90
12870;DHT22;6503;48.572;13.460;2023-01-24T05:39:32;2.10;99.90
12870;DHT22;6503;48.572;13.460;2023-01-24T05:42:00;2.10;99.90
12870;DHT22;6503;48.572;13.460;2023-01-24T05:44:29;2.20;99.90
12870;DHT22;6503;48.572;13.460;2023-01-24T05:46:59;2.20;99.90
12870;DHT22;6503;48.572;13.460;2023-01-24T05:49:27;2.20;99.90
12870;DHT22;6503;48.572;13.460;2023-01-24T05:51:54;2.20;99.90
12870;DHT22;6503;48.572;13.460;2023-01-24T05:54:24;2.20;99.90
12870;DHT22;6503;48.572;13.460;2023-01-24T05:56:53;2.20;99.90
12870;DHT22;6503;48.572;13.460;2023-01-24T05:59:20;2.20;99.90
12870;DHT22;6503;48.572;13.460;2023-01-24T06:01:50;2.20;99.90
12870;DHT22;6503;48.572;13.460;2023-01-24T06:04:48;2.30;99.90
12870;DHT22;6503;48.572;13.460;2023-01-24T06:07:29;2.20;99.90
12870;DHT22;6503;48.572;13.460;2023-01-24T06:09:59;2.40;99.90
12870;DHT22;6503;48.572;13.460;2023-01-24T06:12:28;2.30;99.90
12870;DHT22;6503;48.572;13.460;2023-01-24T06:15:00;2.30;99.90
12870;DHT22;6503;48.572;13.460;2023-01-24T06:17:28;2.20;99.90
12870;DHT22;6503;48.572;13.460;2023-01-24T06:20:00;2.20;99.90
12870;DHT22;6503;48.572;13.460;2023-01-24T06:22:34;2.30;99.90
12870;DHT22;6503;48.572;13.460;2023-01-24T06:25:20;2.20;99.90
12870;DHT22;6503;48.572;13.460;2023-01-24T06:27:49;2.30;99.90
12870;DHT22;6503;48.572;13.460;2023-01-24T06:30:20;2.30;99.90
12870;DHT22;6503;48.572;13.460;2023-01-24T06:33:30;2.30;99.90
12870;DHT22;6503;48.572;13.460;2023-01-24T06:36:29;2.30;99.90
12870;DHT22;6503;48.572;13.460;2023-01-24T06:39:03;2.30;99.90
12870;DHT22;6503;48.572;13.460;2023-01-24T06:45:10;2.20;99.90
12870;DHT22;6503;48.572;13.460;2023-01-24T06:47:48;2.20;99.90
12870;DHT22;6503;48.572;13.460;2023-01-24T06:50:26;2.30;99.90
12870;DHT22;6503;48.572;13.460;2023-01-24T06:52:58;2.30;99.90
12870;DHT22;6503;48.572;13.460;2023-01-24T06:55:25;2.30;99.90
12870;DHT22;6503;48.572;13.460;2023-01-24T06:57:59;2.30;99.90
12870;DHT22;6503;48.572;13.460;2023-01-24T07:00:33;2.40;99.90
12870;DHT22;6503;48.572;13.460;2023-01-24T07:03:12;2.40;99.90
12870;DHT22;6503;48.572;13.460;2023-01-24T07:05:43;2.40;99.90
12870;DHT22;6503;48.572;13.460;2023-01-24T07:08:15;2.30;99.90
12870;DHT22;6503;48.572;13.460;2023-01-24T07:10:52;2.30;99.90
12870;DHT22;6503;48.572;13.460;2023-01-24T07:13:27;2.30;99.90
12870;DHT22;6503;48.572;13.460;2023-01-24T07:20:32;2.40;99.90
12870;DHT22;6503;48.572;13.460;2023-01-24T07:26:55;2.40;99.90
12870;DHT22;6503;48.572;13.460;2023-01-24T07:29:36;2.40;99.90
12870;DHT22;6503;48.572;13.460;2023-01-24T07:32:30;2.30;99.90
12870;DHT22;6503;48.572;13.460;2023-01-24T07:35:21;2.40;99.90
12870;DHT22;6503;48.572;13.460;2023-01-24T07:38:15;2.40;99.90
12870;DHT22;6503;48.572;13.460;2023-01-24T07:40:49;2.50;99.90
12870;DHT22;6503;48.572;13.460;2023-01-24T07:43:38;2.50;99.90
12870;DHT22;6503;48.572;13.460;2023-01-24T07:46:16;2.50;99.90
12870;DHT22;6503;48.572;13.460;2023-01-24T07:49:12;2.50;99.90
12870;DHT22;6503;48.572;13.460;2023-01-24T07:51:48;2.60;99.90
12870;DHT22;6503;48.572;13.460;2023-01-24T07:54:17;2.60;99.90
12870;DHT22;6503;48.572;13.460;2023-01-24T07:56:48;2.60;99.90
12870;DHT22;6503;48.572;13.460;2023-01-24T07:59:27;2.60;99.90
12870;DHT22;6503;48.572;13.460;2023-01-24T08:02:00;2.60;99.90
12870;DHT22;6503;48.572;13.460;2023-01-24T08:04:27;2.60;99.90
12870;DHT22;6503;48.572;13.460;2023-01-24T08:06:55;2.60;99.90
12870;DHT22;6503;48.572;13.460;2023-01-24T08:09:45;2.50;99.90
12870;DHT22;6503;48.572;13.460;2023-01-24T08:15:04;2.60;99.90
12870;DHT22;6503;48.572;13.460;2023-01-24T08:17:34;2.60;99.90
12870;DHT22;6503;48.572;13.460;2023-01-24T08:20:19;2.60;99.90
12870;DHT22;6503;48.572;13.460;2023-01-24T08:22:54;2.70;99.90
12870;DHT22;6503;48.572;13.460;2023-01-24T08:25:22;2.70;99.90
12870;DHT22;6503;48.572;13.460;2023-01-24T08:28:23;2.70;99.90
12870;DHT22;6503;48.572;13.460;2023-01-24T08:31:00;2.80;99.90
12870;DHT22;6503;48.572;13.460;2023-01-24T08:33:32;2.80;99.90
12870;DHT22;6503;48.572;13.460;2023-01-24T08:37:12;2.90;99.90
12870;DHT22;6503;48.572;13.460;2023-01-24T08:39:38;2.90;99.90
12870;DHT22;6503;48.572;13.460;2023-01-24T08:42:16;2.90;99.90
12870;DHT22;6503;48.572;13.460;2023-01-24T08:44:43;2.80;99.90
12870;DHT22;6503;48.572;13.460;2023-01-24T08:47:37;2.90;99.90
12870;DHT22;6503;48.572;13.460;2023-01-24T08:53:43;3.00;99.90
12870;DHT22;6503;48.572;13.460;2023-01-24T08:56:12;3.20;99.90
12870;DHT22;6503;48.572;13.460;2023-01-24T08:58:40;3.20;99.90
12870;DHT22;6503;48.572;13.460;2023-01-24T09:01:16;3.30;99.90
12870;DHT22;6503;48.572;13.460;2023-01-24T09:07:50;3.30;99.90
12870;DHT22;6503;48.572;13.460;2023-01-24T09:10:33;3.30;99.90
12870;DHT22;6503;48.572;13.460;2023-01-24T09:13:04;3.30;99.90
12870;DHT22;6503;48.572;13.460;2023-01-24T09:15:32;3.40;99.90
12870;DHT22;6503;48.572;13.460;2023-01-24T09:18:15;3.40;99.90
12870;DHT22;6503;48.572;13.460;2023-01-24T09:20:51;3.40;99.90
12870;DHT22;6503;48.572;13.460;2023-01-24T09:23:21;3.50;99.90
12870;DHT22;6503;48.572;13.460;2023-01-24T09:25:51;3.50;99.90
12870;DHT22;6503;48.572;13.460;2023-01-24T09:28:37;3.60;99.90
12870;DHT22;6503;48.572;13.460;2023-01-24T09:31:32;3.60;99.90
12870;DHT22;6503;48.572;13.460;2023-01-24T09:37:22;3.70;99.90
12870;DHT22;6503;48.572;13.460;2023-01-24T09:42:58;3.60;99.90
12870;DHT22;6503;48.572;13.460;2023-01-24T09:45:33;3.70;99.90
12870;DHT22;6503;48.572;13.460;2023-01-24T09:48:05;3.80;99.90
12870;DHT22;6503;48.572;13.460;2023-01-24T09:50:38;3.90;99.90
12870;DHT22;6503;48.572;13.460;2023-01-24T09:53:23;4.00;99.90
12870;DHT22;6503;48.572;13.460;2023-01-24T09:56:09;4.00;99.90
12870;DHT22;6503;48.572;13.460;2023-01-24T09:59:17;4.00;99.90
12870;DHT22;6503;48.572;13.460;2023-01-24T10:01:55;4.00;99.90
12870;DHT22;6503;48.572;13.460;2023-01-24T10:04:35;4.10;99.90
12870;DHT22;6503;48.572;13.460;2023-01-24T10:07:50;4.00;99.90
12870;DHT22;6503;48.572;13.460;2023-01-24T10:10:44;4.10;99.90
12870;DHT22;6503;48.572;13.460;2023-01-24T10:13:34;4.00;99.90
12870;DHT22;6503;48.572;13.460;2023-01-24T10:23:16;4.20;99.90
12870;DHT22;6503;48.572;13.460;2023-01-24T10:26:40;4.20;99.90
12870;DHT22;6503;48.572;13.460;2023-01-24T10:39:58;4.30;99.90
12870;DHT22;6503;48.572;13.460;2023-01-24T10:42:40;4.20;99.90
12870;DHT22;6503;48.572;13.460;2023-01-24T10:45:32;4.20;99.90
12870;DHT22;6503;48.572;13.460;2023-01-24T10:48:16;4.20;99.90
12870;DHT22;6503;48.572;13.460;2023-01-24T10:51:16;4.20;99.90
12870;DHT22;6503;48.572;13.460;2023-01-24T10:53:52;4.20;99.90
12870;DHT22;6503;48.572;13.460;2023-01-24T10:57:13;4.20;99.90
12870;DHT22;6503;48.572;13.460;2023-01-24T11:01:33;4.20;99.90
12870;DHT22;6503;48.572;13.460;2023-01-24T11:03:47;4.30;99.90
12870;DHT22;6503;48.572;13.460;2023-01-24T11:06:23;4.20;99.90
12870;DHT22;6503;48.572;13.460;2023-01-24T11:09:04;4.30;99.90
12870;DHT22;6503;48.572;13.460;2023-01-24T11:15:22;4.30;99.90
12870;DHT22;6503;48.572;13.460;2023-01-24T11:18:20;4.30;99.90
12870;DHT22;6503;48.572;13.460;2023-01-24T11:21:25;4.40;99.90
12870;DHT22;6503;48.572;13.460;2023-01-24T11:24:14;4.40;99.90
12870;DHT22;6503;48.572;13.460;2023-01-24T11:27:02;4.40;99.90
12870;DHT22;6503;48.572;13.460;2023-01-24T11:29:47;4.40;99.90
12870;DHT22;6503;48.572;13.460;2023-01-24T11:35:32;4.50;99.90
12870;DHT22;6503;48.572;13.460;2023-01-24T11:38:35;4.50;99.90
12870;DHT22;6503;48.572;13.460;2023-01-24T11:44:54;5.00;99.90
12870;DHT22;6503;48.572;13.460;2023-01-24T11:47:35;5.30;99.90
12870;DHT22;6503;48.572;13.460;2023-01-24T12:25:39;6.20;99.90
12870;DHT22;6503;48.572;13.460;2023-01-24T12:28:14;6.20;99.90
12870;DHT22;6503;48.572;13.460;2023-01-24T12:30:47;6.10;99.90
12870;DHT22;6503;48.572;13.460;2023-01-24T12:33:22;6.10;99.90
12870;DHT22;6503;48.572;13.460;2023-01-24T12:35:56;5.90;99.90
12870;DHT22;6503;48.572;13.460;2023-01-24T12:38:31;5.90;99.90
12870;DHT22;6503;48.572;13.460;2023-01-24T12:41:09;6.00;99.90
12870;DHT22;6503;48.572;13.460;2023-01-24T12:43:48;6.00;99.90
12870;DHT22;6503;48.572;13.460;2023-01-24T12:46:24;6.30;99.90
12870;DHT22;6503;48.572;13.460;2023-01-24T12:48:59;6.50;99.90
12870;DHT22;6503;48.572;13.460;2023-01-24T12:51:32;6.50;99.90
12870;DHT22;6503;48.572;13.460;2023-01-24T12:54:11;6.70;99.90
12870;DHT22;6503;48.572;13.460;2023-01-24T12:56:49;6.80;99.90
12870;DHT22;6503;48.572;13.460;2023-01-24T12:59:23;7.00;99.90
12870;DHT22;6503;48.572;13.460;2023-01-24T13:05:26;7.00;99.90
12870;DHT22;6503;48.572;13.460;2023-01-24T13:08:21;6.70;99.90
12870;DHT22;6503;48.572;13.460;2023-01-24T13:11:17;6.60;99.90
12870;DHT22;6503;48.572;13.460;2023-01-24T13:27:16;7.30;99.90
12870;DHT22;6503;48.572;13.460;2023-01-24T13:33:35;7.40;99.90
12870;DHT22;6503;48.572;13.460;2023-01-24T13:36:12;7.00;99.90
12870;DHT22;6503;48.572;13.460;2023-01-24T13:38:45;6.50;99.90
12870;DHT22;6503;48.572;13.460;2023-01-24T13:41:31;6.30;99.90
12870;DHT22;6503;48.572;13.460;2023-01-24T13:47:36;6.10;99.90
12870;DHT22;6503;48.572;13.460;2023-01-24T13:50:17;6.20;99.90
12870;DHT22;6503;48.572;13.460;2023-01-24T13:52:59;6.20;99.90
12870;DHT22;6503;48.572;13.460;2023-01-24T13:56:01;6.20;99.90
12870;DHT22;6503;48.572;13.460;2023-01-24T13:59:03;6.00;99.90
12870;DHT22;6503;48.572;13.460;2023-01-24T14:01:53;5.80;99.90
12870;DHT22;6503;48.572;13.460;2023-01-24T15:06:46;5.00;99.90
12870;DHT22;6503;48.572;13.460;2023-01-24T15:09:15;5.00;99.90
12870;DHT22;6503;48.572;13.460;2023-01-24T15:11:44;4.90;99.90
12870;DHT22;6503;48.572;13.460;2023-01-24T15:14:19;4.90;99.90
12870;DHT22;6503;48.572;13.460;2023-01-24T15:16:48;4.90;99.90
12870;DHT22;6503;48.572;13.460;2023-01-24T15:19:19;4.80;99.90
12870;DHT22;6503;48.572;13.460;2023-01-24T15:21:51;4.70;99.90
12870;DHT22;6503;48.572;13.460;2023-01-24T15:24:24;4.50;99.90
12870;DHT22;6503;48.572;13.460;2023-01-24T15:26:57;4.50;99.90
12870;DHT22;6503;48.572;13.460;2023-01-24T15:29:41;4.40;99.90
12870;DHT22;6503;48.572;13.460;2023-01-24T15:32:28;4.40;99.90
12870;DHT22;6503;48.572;13.460;2023-01-24T15:35:31;4.40;99.90
12870;DHT22;6503;48.572;13.460;2023-01-24T15:38:20;4.50;99.90
12870;DHT22;6503;48.572;13.460;2023-01-24T15:41:12;4.50;99.90
12870;DHT22;6503;48.572;13.460;2023-01-24T15:43:42;4.40;99.90
12870;DHT22;6503;48.572;13.460;2023-01-24T15:46:24;4.40;99.90
12870;DHT22;6503;48.572;13.460;2023-01-24T15:49:22;4.40;99.90
12870;DHT22;6503;48.572;13.460;2023-01-24T15:52:17;4.40;99.90
12870;DHT22;6503;48.572;13.460;2023-01-24T15:54:48;4.40;99.90
12870;DHT22;6503;48.572;13.460;2023-01-24T15:57:22;4.40;99.90
12870;DHT22;6503;48.572;13.460;2023-01-24T15:59:57;4.30;99.90
12870;DHT22;6503;48.572;13.460;2023-01-24T16:02:27;4.30;99.90
12870;DHT22;6503;48.572;13.460;2023-01-24T16:05:01;4.30;99.90
12870;DHT22;6503;48.572;13.460;2023-01-24T16:07:33;4.30;99.90
12870;DHT22;6503;48.572;13.460;2023-01-24T16:10:04;4.20;99.90
12870;DHT22;6503;48.572;13.460;2023-01-24T16:12:33;4.20;99.90
12870;DHT22;6503;48.572;13.460;2023-01-24T16:15:01;4.20;99.90
12870;DHT22;6503;48.572;13.460;2023-01-24T16:17:32;4.10;99.90
12870;DHT22;6503;48.572;13.460;2023-01-24T16:23:21;4.00;99.90
12870;DHT22;6503;48.572;13.460;2023-01-24T16:59:49;4.00;99.90
12870;DHT22;6503;48.572;13.460;2023-01-24T17:02:23;4.00;99.90
12870;DHT22;6503;48.572;13.460;2023-01-24T17:05:05;4.00;99.90
12870;DHT22;6503;48.572;13.460;2023-01-24T17:07:57;4.00;99.90
12870;DHT22;6503;48.572;13.460;2023-01-24T17:10:36;4.00;99.90
12870;DHT22;6503;48.572;13.460;2023-01-24T17:13:23;4.00;99.90
12870;DHT22;6503;48.572;13.460;2023-01-24T17:16:23;4.00;99.90
12870;DHT22;6503;48.572;13.460;2023-01-24T17:19:01;4.00;99.90
12870;DHT22;6503;48.572;13.460;2023-01-24T17:21:45;4.00;99.90
12870;DHT22;6503;48.572;13.460;2023-01-24T17:24:28;4.00;99.90
12870;DHT22;6503;48.572;13.460;2023-01-24T17:27:02;4.00;99.90
12870;DHT22;6503;48.572;13.460;2023-01-24T17:29:37;4.00;99.90
12870;DHT22;6503;48.572;13.460;2023-01-24T17:32:14;4.00;99.90
12870;DHT22;6503;48.572;13.460;2023-01-24T17:35:02;3.90;99.90
12870;DHT22;6503;48.572;13.460;2023-01-24T17:37:39;4.00;99.90
12870;DHT22;6503;48.572;13.460;2023-01-24T17:40:11;4.00;99.90
12870;DHT22;6503;48.572;13.460;2023-01-24T17:42:41;4.00;99.90
12870;DHT22;6503;48.572;13.460;2023-01-24T17:45:21;4.00;99.90
12870;DHT22;6503;48.572;13.460;2023-01-24T17:47:51;3.90;99.90
12870;DHT22;6503;48.572;13.460;2023-01-24T17:50:22;3.80;99.90
12870;DHT22;6503;48.572;13.460;2023-01-24T17:52:55;3.90;99.90
12870;DHT22;6503;48.572;13.460;2023-01-24T17:55:28;3.90;99.90
12870;DHT22;6503;48.572;13.460;2023-01-24T17:58:02;4.00;99.90
12870;DHT22;6503;48.572;13.460;2023-01-24T18:00:43;3.90;99.90
12870;DHT22;6503;48.572;13.460;2023-01-24T18:03:34;3.90;99.90
12870;DHT22;6503;48.572;13.460;2023-01-24T18:06:09;3.90;99.90
12870;DHT22;6503;48.572;13.460;2023-01-24T18:08:41;3.90;99.90
12870;DHT22;6503;48.572;13.460;2023-01-24T18:11:25;3.90;99.90
12870;DHT22;6503;48.572;13.460;2023-01-24T18:14:10;3.90;99.90
12870;DHT22;6503;48.572;13.460;2023-01-24T18:16:39;3.90;99.90
12870;DHT22;6503;48.572;13.460;2023-01-24T18:19:30;3.90;99.90
12870;DHT22;6503;48.572;13.460;2023-01-24T18:21:59;3.90;99.90
12870;DHT22;6503;48.572;13.460;2023-01-24T18:25:01;3.90;99.90
12870;DHT22;6503;48.572;13.460;2023-01-24T18:27:31;3.80;99.90
12870;DHT22;6503;48.572;13.460;2023-01-24T18:30:07;3.80;99.90
12870;DHT22;6503;48.572;13.460;2023-01-24T18:32:44;3.80;99.90
12870;DHT22;6503;48.572;13.460;2023-01-24T18:35:23;3.80;99.90
12870;DHT22;6503;48.572;13.460;2023-01-24T18:37:51;3.70;99.90
12870;DHT22;6503;48.572;13.460;2023-01-24T18:40:23;3.70;99.90
12870;DHT22;6503;48.572;13.460;2023-01-24T18:42:52;3.70;99.90
12870;DHT22;6503;48.572;13.460;2023-01-24T18:45:19;3.70;99.90
12870;DHT22;6503;48.572;13.460;2023-01-24T18:47:49;3.70;99.90
12870;DHT22;6503;48.572;13.460;2023-01-24T18:50:27;3.60;99.90
12870;DHT22;6503;48.572;13.460;2023-01-24T18:52:55;3.70;99.90
12870;DHT22;6503;48.572;13.460;2023-01-24T18:55:24;3.70;99.90
12870;DHT22;6503;48.572;13.460;2023-01-24T18:58:01;3.60;99.90
12870;DHT22;6503;48.572;13.460;2023-01-24T19:00:44;3.70;99.90
12870;DHT22;6503;48.572;13.460;2023-01-24T19:03:18;3.70;99.90
12870;DHT22;6503;48.572;13.460;2023-01-24T20:10:55;3.40;99.90
12870;DHT22;6503;48.572;13.460;2023-01-24T20:13:27;3.40;99.90
12870;DHT22;6503;48.572;13.460;2023-01-24T20:16:01;3.40;99.90
12870;DHT22;6503;48.572;13.460;2023-01-24T20:18:29;3.40;99.90
12870;DHT22;6503;48.572;13.460;2023-01-24T20:21:01;3.30;99.90
12870;DHT22;6503;48.572;13.460;2023-01-24T20:23:29;3.40;99.90
12870;DHT22;6503;48.572;13.460;2023-01-24T20:42:43;3.40;99.90
12870;DHT22;6503;48.572;13.460;2023-01-24T20:45:12;3.40;99.90
12870;DHT22;6503;48.572;13.460;2023-01-24T20:47:46;3.40;99.90
12870;DHT22;6503;48.572;13.460;2023-01-24T20:50:20;3.30;99.90
12870;DHT22;6503;48.572;13.460;2023-01-24T20:52:52;3.30;99.90
12870;DHT22;6503;48.572;13.460;2023-01-24T20:55:24;3.30;99.90
12870;DHT22;6503;48.572;13.460;2023-01-24T20:58:10;3.30;99.90
12870;DHT22;6503;48.572;13.460;2023-01-24T21:01:01;3.30;99.90
12870;DHT22;6503;48.572;13.460;2023-01-24T21:03:29;3.20;99.90
12870;DHT22;6503;48.572;13.460;2023-01-24T21:06:06;3.20;99.90
12870;DHT22;6503;48.572;13.460;2023-01-24T21:08:45;3.30;99.90
12870;DHT22;6503;48.572;13.460;2023-01-24T21:11:20;3.20;99.90
12870;DHT22;6503;48.572;13.460;2023-01-24T21:13:54;3.20;99.90
12870;DHT22;6503;48.572;13.460;2023-01-24T21:16:30;3.10;99.90
12870;DHT22;6503;48.572;13.460;2023-01-24T21:19:13;3.10;99.90
12870;DHT22;6503;48.572;13.460;2023-01-24T21:21:43;3.20;99.90
12870;DHT22;6503;48.572;13.460;2023-01-24T21:27:56;3.20;99.90
12870;DHT22;6503;48.572;13.460;2023-01-24T22:09:58;3.20;99.90
12870;DHT22;6503;48.572;13.460;2023-01-24T22:12:26;3.10;99.90
12870;DHT22;6503;48.572;13.460;2023-01-24T22:14:53;3.10;99.90
12870;DHT22;6503;48.572;13.460;2023-01-24T22:17:22;3.20;99.90
12870;DHT22;6503;48.572;13.460;2023-01-24T22:19:52;3.10;99.90
12870;DHT22;6503;48.572;13.460;2023-01-24T22:22:31;3.10;99.90